Time;durP1;ratioP1;P1;durP2;ratioP2;P2;SDS_P1;SDS_P2;PMS_P1;PMS_P2;Temp;Humidity;BMP_temperature;BMP_pressure;BME280_temperature;BME280_humidity;BME280_pressure;Samples;Min_cycle;Max_cycle;Signal;HPM_P1;HPM_P2
2021/01/06 00:00:50;;;;;;;;;;;;;;;4.59;72.86;99550.55;118863;1150;104548;-71
2021/01/06 00:03:19;;;;;;;;;;;;;;;4.61;73.15;99556.53;118880;1150;104628;-73
2021/01/06 00:05:46;;;;;;;;;;;;;;;4.65;73.21;99555.30;118418;1151;104508;-73
2021/01/06 00:08:12;;;;;;;;;;;;;;;4.69;73.06;99551.41;118999;1150;104646;-72
2021/01/06 00:10:38;;;;;;;;;;;;;;;4.72;73.21;99556.45;118779;1150;104482;-71
2021/01/06 00:13:04;;;;;;;;;;;;;;;4.76;73.13;99557.02;118683;1150;104596;-71
2021/01/06 00:15:35;;;;;;;;;;;;;;;4.85;73.19;99550.09;118668;1150;104488;-74
2021/01/06 00:18:00;;;;;;;;;;;;;;;4.90;73.24;99558.46;118912;1150;104461;-72
2021/01/06 00:20:28;;;;;;;;;;;;;;;4.94;73.07;99562.51;118831;1150;104582;-72
2021/01/06 00:22:53;;;;;;;;;;;;;;;4.98;72.90;99555.14;118914;1150;104825;-75
2021/01/06 00:25:21;;;;;;;;;;;;;;;4.96;73.06;99557.92;118949;1150;104487;-74
2021/01/06 00:27:46;;;;;;;;;;;;;;;4.97;73.11;99562.25;118928;1150;105082;-71
2021/01/06 00:30:21;;;;;;;;;;;;;;;4.91;73.00;99566.27;118900;1150;104611;-71
2021/01/06 00:32:46;;;;;;;;;;;;;;;4.89;73.21;99564.73;118868;1151;104502;-71
2021/01/06 00:35:12;;;;;;;;;;;;;;;4.87;73.14;99564.03;118805;1150;104569;-73
2021/01/06 00:37:38;;;;;;;;;;;;;;;4.84;72.85;99570.41;118863;1149;104618;-71
2021/01/06 00:40:03;;;;;;;;;;;;;;;4.85;73.21;99572.09;118609;1149;104915;-71
2021/01/06 00:42:29;;;;;;;;;;;;;;;4.90;72.92;99577.80;118628;1150;104583;-71
2021/01/06 00:44:55;;;;;;;;;;;;;;;4.94;72.97;99574.89;118720;1149;104547;-71
2021/01/06 00:47:21;;;;;;;;;;;;;;;4.94;72.96;99575.72;118790;1148;105089;-72
2021/01/06 00:49:46;;;;;;;;;;;;;;;4.93;73.23;99574.07;118912;1148;104462;-71
2021/01/06 00:52:12;;;;;;;;;;;;;;;4.92;72.88;99572.38;118835;1148;104803;-71
2021/01/06 00:54:38;;;;;;;;;;;;;;;4.90;73.00;99579.61;118829;1148;104669;-71
2021/01/06 00:57:04;;;;;;;;;;;;;;;4.93;73.06;99584.64;118887;1148;104569;-72
2021/01/06 00:59:31;;;;;;;;;;;;;;;4.95;73.02;99584.52;118565;1148;104559;-71
2021/01/06 01:01:56;;;;;;;;;;;;;;;4.96;72.99;99583.53;118547;1150;104610;-72
2021/01/06 01:04:22;;;;;;;;;;;;;;;5.00;72.75;99588.41;118884;1150;104476;-72
2021/01/06 01:06:48;;;;;;;;;;;;;;;5.03;73.01;99590.80;118837;1150;104721;-74
2021/01/06 01:09:13;;;;;;;;;;;;;;;5.06;72.58;99592.32;119037;1148;104476;-72
2021/01/06 01:11:39;;;;;;;;;;;;;;;5.06;73.11;99595.83;118798;1148;105524;-72
2021/01/06 01:14:05;;;;;;;;;;;;;;;5.05;72.80;99593.31;118811;1150;104476;-72
2021/01/06 01:16:31;;;;;;;;;;;;;;;5.07;72.89;99597.48;118901;1149;104743;-72
2021/01/06 01:18:58;;;;;;;;;;;;;;;5.07;72.60;99597.48;118796;1149;104544;-72
2021/01/06 01:21:23;;;;;;;;;;;;;;;5.13;72.99;99611.16;118836;1149;104691;-72
2021/01/06 01:23:49;;;;;;;;;;;;;;;5.11;72.93;99613.92;118868;1149;104492;-74
2021/01/06 01:26:15;;;;;;;;;;;;;;;5.04;72.35;99612.77;118863;1149;105843;-71
2021/01/06 01:28:40;;;;;;;;;;;;;;;4.99;72.58;99618.47;118821;1150;104482;-71
2021/01/06 01:31:06;;;;;;;;;;;;;;;4.97;72.53;99619.59;118869;1150;104474;-71
2021/01/06 01:33:32;;;;;;;534.83;179.27;;;;;;;4.98;72.92;99626.53;118777;1151;104484;-71
2021/01/06 01:35:58;;;;;;;591.77;234.60;;;;;;;5.02;72.76;99614.72;118783;1150;105050;-72
2021/01/06 01:38:27;;;;;;;;;;;;;;;5.05;72.20;99615.30;118931;1149;104423;-71
2021/01/06 01:41:03;;;;;;;;;;;;;;;5.03;72.55;99622.52;118855;1149;104463;-70
2021/01/06 01:43:29;;;;;;;;;;;;;;;5.05;72.37;99625.87;118553;1148;104466;-71
2021/01/06 01:45:55;;;;;;;536.90;169.50;;;;;;;5.04;72.34;99624.21;118555;1148;104884;-71
2021/01/06 01:48:30;;;;;;;;;;;;;;;5.05;72.35;99628.52;118635;1148;104695;-71
2021/01/06 01:51:01;;;;;;;;;;;;;;;5.04;72.65;99626.00;118442;1148;105215;-70
2021/01/06 01:53:34;;;;;;;;;;;;;;;5.04;72.31;99626.00;118439;1148;104849;-70
2021/01/06 01:56:00;;;;;;;;;;;;;;;5.02;72.22;99626.16;118272;1148;104458;-71
2021/01/06 01:58:27;;;;;;;;;;;;;;;5.00;72.33;99633.34;118265;1148;104482;-71
2021/01/06 02:00:54;;;;;;;;;;;;;;;5.01;72.61;99627.11;118238;1149;105368;-71
2021/01/06 02:03:29;;;;;;;;;;;;;;;5.01;72.44;99629.75;118280;1150;104454;-71
2021/01/06 02:06:01;;;;;;;;;;;;;;;5.05;72.55;99625.87;118234;1150;105923;-71
2021/01/06 02:08:31;;;;;;;;;;;;;;;5.04;72.18;99632.14;118454;1148;105295;-72
2021/01/06 02:10:57;;;;;;;;;;;;;;;5.02;72.17;99638.52;118224;1150;104563;-71
2021/01/06 02:13:31;;;;;;;;;;;;;;;5.04;72.48;99629.50;118808;1149;104505;-71
2021/01/06 02:16:06;;;;;;;;;;;;;;;5.09;72.57;99637.02;118747;1148;104655;-71
2021/01/06 02:18:32;;;;;;;;;;;;;;;5.11;72.27;99641.20;118788;1148;105360;-72
2021/01/06 02:21:14;;;;;;;;;;;;;;;5.10;72.48;99636.89;118793;1148;104460;-74
2021/01/06 02:23:42;;;;;;;526.40;146.10;;;;;;;4.99;72.01;99641.44;118832;1148;104905;-72
2021/01/06 02:26:08;;;;;;;;;;;;;;;4.97;71.73;99641.56;118780;1148;104868;-72
2021/01/06 02:28:33;;;;;;;;;;;;;;;5.00;72.24;99637.81;118776;1149;105447;-71
2021/01/06 02:30:59;;;;;;;;;;;;;;;4.96;72.44;99629.30;118910;1148;104498;-71
2021/01/06 02:33:26;;;;;;;544.50;179.20;;;;;;;5.01;72.45;99642.97;118765;1150;105301;-71
2021/01/06 02:35:53;;;;;;;;;;;;;;;5.05;72.42;99631.16;118892;1148;104521;-72
2021/01/06 02:38:19;;;;;;;;;;;;;;;5.09;72.41;99634.38;118776;1150;105090;-70
2021/01/06 02:40:45;;;;;;;;;;;;;;;5.14;72.30;99633.96;118899;1149;104552;-72
2021/01/06 02:43:11;;;;;;;;;;;;;;;5.15;72.16;99639.12;118791;1149;105088;-71
2021/01/06 02:45:36;;;;;;;;;;;;;;;5.15;71.95;99635.66;118792;1150;105122;-72
2021/01/06 02:48:02;;;;;;;;;;;;;;;5.10;72.18;99644.00;118877;1149;104973;-71
2021/01/06 02:50:28;;;;;;;;;;;;;;;5.03;71.94;99643.67;118787;1150;104725;-71
2021/01/06 02:53:06;;;;;;;;;;;;;;;4.92;72.24;99639.30;118821;1150;104473;-71
2021/01/06 02:55:33;;;;;;;;;;;;;;;4.87;71.98;99636.23;118773;1149;104495;-72
2021/01/06 02:58:02;;;;;;;;;;;;;;;4.83;71.76;99633.97;118782;1149;105461;-71
2021/01/06 03:00:27;;;;;;;;;;;;;;;4.72;71.77;99635.73;118840;1148;105111;-71
2021/01/06 03:02:53;;;;;;;;;;;;;;;4.68;72.00;99634.33;118786;1148;104925;-72
2021/01/06 03:05:22;;;;;;;;;;;;;;;4.66;72.01;99636.27;118892;1150;105754;-71
2021/01/06 03:07:48;;;;;;;;;;;;;;;4.64;72.01;99638.20;118891;1148;105506;-72
2021/01/06 03:10:18;;;;;;;;;;;;;;;4.48;72.13;99617.53;118863;1148;104477;-70
2021/01/06 03:12:45;;;;;;;;;;;;;;;4.59;71.78;99640.38;118529;1150;104650;-71
2021/01/06 03:15:13;;;;;;;561.47;227.83;;;;;;;4.61;72.64;99638.45;118785;1150;104560;-72
2021/01/06 03:17:39;;;;;;;604.50;242.22;;;;;;;4.68;71.99;99628.20;118844;1149;104604;-72
2021/01/06 03:20:12;;;;;;;629.90;245.57;;;;;;;4.71;72.11;99634.08;118820;1148;104656;-71
2021/01/06 03:22:47;;;;;;;592.27;214.10;;;;;;;4.78;71.99;99644.95;118862;1148;104931;-71
2021/01/06 03:25:15;;;;;;;362.93;306.15;;;;;;;4.80;71.98;99636.89;118778;1149;104876;-71
2021/01/06 03:27:43;;;;;;;375.53;302.57;;;;;;;4.86;72.56;99639.83;118818;1148;104480;-71
2021/01/06 03:30:15;;;;;;;447.77;313.45;;;;;;;4.87;71.94;99646.81;118814;1150;104611;-71
2021/01/06 03:32:51;;;;;;;564.57;272.60;;;;;;;4.89;71.99;99642.23;118823;1148;104485;-72
2021/01/06 03:35:27;;;;;;;557.45;188.05;;;;;;;4.94;72.07;99641.81;118798;1150;104646;-71
2021/01/06 03:37:58;;;;;;;362.40;277.22;;;;;;;4.98;72.01;99637.11;118831;1150;104556;-72
2021/01/06 03:40:30;;;;;;;209.83;194.27;;;;;;;5.04;71.72;99640.08;118780;1150;104571;-73
2021/01/06 03:42:56;;;;;;;370.30;311.05;;;;;;;5.05;71.70;99630.33;118855;1150;104491;-71
2021/01/06 03:45:27;;;;;;;420.45;309.07;;;;;;;5.02;71.94;99633.22;118496;1150;104503;-71
2021/01/06 03:48:02;;;;;;;111.05;34.75;;;;;;;4.93;71.86;99632.23;118218;1150;104591;-72
2021/01/06 03:50:31;;;;;;;;;;;;;;;4.80;71.85;99636.89;118817;1151;104457;-71
2021/01/06 03:53:03;;;;;;;23.50;13.70;;;;;;;4.77;71.88;99637.97;118859;1150;104486;-72
2021/01/06 03:55:44;;;;;;;16.07;8.63;;;;;;;4.75;71.57;99645.20;118825;1151;104530;-70
2021/01/06 03:58:31;;;;;;;17.80;9.80;;;;;;;4.69;71.64;99648.37;118797;1149;104519;-72
2021/01/06 04:01:15;;;;;;;22.00;12.57;;;;;;;4.62;71.99;99634.85;118774;1150;104583;-70
2021/01/06 04:04:02;;;;;;;31.80;18.70;;;;;;;4.54;72.09;99637.28;118771;1149;104640;-71
2021/01/06 04:06:30;;;;;;;64.33;19.63;;;;;;;4.47;72.23;99633.51;118806;1150;104473;-71
2021/01/06 04:08:58;;;;;;;23.10;12.80;;;;;;;4.43;72.26;99632.92;118587;1148;104471;-71
2021/01/06 04:11:33;;;;;;;76.10;19.30;;;;;;;4.38;72.27;99635.10;118381;1148;104565;-70
2021/01/06 04:13:58;;;;;;;77.73;58.10;;;;;;;4.34;72.30;99644.25;118256;1147;104634;-70
2021/01/06 04:16:25;;;;;;;192.97;98.03;;;;;;;4.33;72.18;99640.78;118801;1150;104513;-70
2021/01/06 04:18:51;;;;;;;566.52;221.82;;;;;;;4.38;71.85;99650.95;118839;1149;104578;-73
2021/01/06 04:21:17;;;;;;;611.00;228.73;;;;;;;4.44;71.97;99652.24;118781;1150;104667;-71
2021/01/06 04:23:43;;;;;;;610.33;236.83;;;;;;;4.53;72.19;99646.19;118781;1150;104495;-71
2021/01/06 04:26:15;;;;;;;610.95;239.53;;;;;;;4.60;72.14;99652.64;118853;1151;104490;-72
2021/01/06 04:28:42;;;;;;;552.37;171.68;;;;;;;4.64;71.90;99651.41;118929;1149;104556;-71
2021/01/06 04:31:12;;;;;;;611.23;241.30;;;;;;;4.64;71.66;99650.58;118271;1149;104703;-70
2021/01/06 04:33:47;;;;;;;614.13;252.50;;;;;;;4.64;71.84;99653.22;118259;1150;104582;-70
2021/01/06 04:36:22;;;;;;;618.00;258.45;;;;;;;4.65;71.85;99650.42;118208;1150;104477;-71
2021/01/06 04:38:52;;;;;;;616.67;259.20;;;;;;;4.65;71.60;99655.71;118267;1150;104631;-71
2021/01/06 04:41:44;;;;;;;554.85;181.12;;;;;;;4.61;71.53;99651.66;118742;1148;104511;-71
2021/01/06 04:44:43;;;;;;;597.40;234.60;;;;;;;4.60;71.90;99651.78;118535;1150;104465;-71
2021/01/06 04:47:15;;;;;;;600.35;235.85;;;;;;;4.59;71.42;99660.69;118225;1150;104541;-71
2021/01/06 04:50:09;;;;;;;596.45;248.20;;;;;;;4.58;71.70;99667.79;118219;1150;104508;-72
2021/01/06 04:53:04;;;;;;;549.73;174.37;;;;;;;4.59;71.25;99672.09;118272;1150;104677;-70
2021/01/06 04:56:04;;;;;;;563.17;228.77;;;;;;;4.56;71.72;99666.22;118259;1149;104481;-74
2021/01/06 04:58:57;;;;;;;555.25;218.70;;;;;;;4.57;71.58;99668.74;118205;1150;104516;-70
2021/01/06 05:01:29;;;;;;;528.62;225.75;;;;;;;4.57;71.62;99668.74;118293;1151;104477;-70
2021/01/06 05:04:02;;;;;;;520.15;144.40;;;;;;;4.58;71.38;99669.57;118238;1148;104656;-71
2021/01/06 05:06:34;;;;;;;525.37;127.20;;;;;;;4.50;71.57;99667.58;118231;1148;104506;-70
2021/01/06 05:09:38;;;;;;;170.70;157.18;;;;;;;4.47;71.57;99666.03;118467;1148;104924;-71
2021/01/06 05:12:28;;;;;;;205.80;190.10;;;;;;;4.50;71.68;99664.93;118167;1151;104620;-70
2021/01/06 05:15:10;;;;;;;274.65;252.45;;;;;;;4.56;71.64;99675.01;118485;1148;104463;-71
2021/01/06 05:17:37;;;;;;;313.87;287.20;;;;;;;4.57;71.16;99674.03;118210;1148;104460;-70
2021/01/06 05:20:05;;;;;;;592.17;247.13;;;;;;;4.61;71.62;99682.54;118272;1148;104874;-70
2021/01/06 05:22:31;;;;;;;331.50;141.03;;;;;;;4.54;71.50;99687.48;118276;1149;104479;-70
2021/01/06 05:24:57;;;;;;;;;;;;;;;4.46;71.53;99682.01;118225;1150;105682;-71
2021/01/06 05:27:27;;;;;;;;;;;;;;;4.46;71.73;99689.94;118277;1150;105027;-70
2021/01/06 05:30:01;;;;;;;596.00;215.87;;;;;;;4.50;71.65;99691.35;118227;1149;104598;-71
2021/01/06 05:32:33;;;;;;;601.43;230.30;;;;;;;4.55;71.63;99697.09;118205;1150;104661;-70
2021/01/06 05:35:05;;;;;;;534.87;156.00;;;;;;;4.59;71.53;99681.83;118221;1151;104500;-71
2021/01/06 05:37:31;;;;;;;592.80;214.70;;;;;;;4.62;71.43;99692.98;118764;1148;104474;-71
2021/01/06 05:40:11;;;;;;;597.80;225.85;;;;;;;4.61;71.41;99696.58;118807;1148;104484;-72
2021/01/06 05:42:54;;;;;;;596.20;226.45;;;;;;;4.62;71.48;99692.12;118829;1149;104660;-70
2021/01/06 05:45:28;;;;;;;599.25;230.70;;;;;;;4.65;71.22;99695.35;118811;1149;104457;-71
2021/01/06 05:48:13;;;;;;;537.47;157.53;;;;;;;4.66;71.43;99701.50;118813;1150;104755;-71
2021/01/06 05:50:40;;;;;;;596.10;223.15;;;;;;;4.69;71.80;99698.58;118801;1149;104470;-71
2021/01/06 05:53:22;;;;;;;598.10;233.40;;;;;;;4.67;71.22;99693.41;118779;1149;105448;-73
2021/01/06 05:55:50;;;;;;;;;;;;;;;4.67;71.43;99701.34;118512;1148;105968;-71
2021/01/06 05:58:19;;;;;;;;;;;;;;;4.69;71.35;99704.69;118781;1150;104940;-72
2021/01/06 06:01:12;;;;;;;528.25;141.90;;;;;;;4.67;71.35;99706.63;118763;1149;105224;-70
2021/01/06 06:03:57;;;;;;;;;;;;;;;4.68;71.11;99703.03;118887;1148;104486;-72
2021/01/06 06:06:45;;;;;;;;;;;;;;;4.68;71.35;99708.32;118600;1150;105026;-72
2021/01/06 06:09:12;;;;;;;;;;;;;;;4.65;71.09;99705.92;118762;1148;104582;-69
2021/01/06 06:12:03;;;;;;;585.60;212.55;;;;;;;4.65;71.49;99697.16;118420;1148;105014;-69
2021/01/06 06:14:35;;;;;;;;;;;;;;;4.59;70.90;99703.80;118412;1150;104573;-69
2021/01/06 06:17:13;;;;;;;587.10;208.00;;;;;;;4.47;71.16;99704.83;118450;1149;104533;-69
2021/01/06 06:19:57;;;;;;;591.35;215.75;;;;;;;4.37;71.88;99714.47;118536;1148;104514;-69
2021/01/06 06:22:32;;;;;;;592.30;215.10;;;;;;;4.39;71.51;99710.75;118389;1151;104481;-69
2021/01/06 06:25:05;;;;;;;542.45;149.47;;;;;;;4.41;71.33;99708.82;118472;1149;104620;-70
2021/01/06 06:27:45;;;;;;;592.30;210.50;;;;;;;4.50;71.23;99721.27;118457;1150;104869;-69
2021/01/06 06:30:11;;;;;;;593.80;219.40;;;;;;;4.49;70.95;99718.75;118473;1148;104594;-69
2021/01/06 06:32:42;;;;;;;599.97;226.50;;;;;;;4.42;71.17;99709.65;118406;1148;105180;-69
2021/01/06 06:35:19;;;;;;;602.13;229.70;;;;;;;4.37;71.31;99715.33;118494;1148;104645;-69
2021/01/06 06:37:53;;;;;;;554.87;170.77;;;;;;;4.32;71.21;99717.50;118415;1148;104541;-69
2021/01/06 06:40:20;;;;;;;597.87;221.75;;;;;;;4.24;71.43;99715.48;118457;1148;104580;-69
2021/01/06 06:42:51;;;;;;;685.70;289.05;;;;;;;4.22;71.40;99717.41;118438;1150;104461;-69
2021/01/06 06:45:29;;;;;;;660.63;265.47;;;;;;;4.24;71.58;99718.13;118383;1149;104570;-69
2021/01/06 06:48:13;;;;;;;570.33;184.67;;;;;;;4.21;71.59;99715.72;118482;1149;104659;-70
2021/01/06 06:50:51;;;;;;;597.27;219.50;;;;;;;4.27;71.14;99712.61;118408;1151;104582;-70
2021/01/06 06:53:57;;;;;;;600.60;223.87;;;;;;;4.28;71.37;99721.36;118382;1150;104534;-70
2021/01/06 06:56:42;;;;;;;584.60;204.85;;;;;;;4.23;71.27;99724.36;118429;1150;105030;-70
2021/01/06 06:59:42;;;;;;;552.27;173.70;;;;;;;4.25;70.98;99735.66;118602;1150;104575;-70
2021/01/06 07:02:08;;;;;;;596.53;215.65;;;;;;;4.28;71.54;99734.56;118465;1149;104654;-70
2021/01/06 07:04:45;;;;;;;604.30;229.17;;;;;;;4.28;71.32;99732.75;118537;1150;104528;-70
2021/01/06 07:07:44;;;;;;;599.85;224.10;;;;;;;4.23;71.12;99737.56;118479;1149;104504;-70
2021/01/06 07:10:33;;;;;;;597.73;221.57;;;;;;;4.20;71.10;99737.83;118425;1148;104489;-70
2021/01/06 07:13:19;;;;;;;568.60;188.20;;;;;;;4.20;70.81;99742.28;118454;1148;104477;-71
2021/01/06 07:15:49;;;;;;;722.15;316.10;;;;;;;4.23;71.60;99742.84;118545;1149;104659;-70
2021/01/06 07:18:27;;;;;;;677.13;284.73;;;;;;;4.28;71.21;99738.03;118559;1150;104687;-70
2021/01/06 07:20:58;;;;;;;646.80;266.75;;;;;;;4.30;71.34;99745.84;118423;1148;104480;-70
2021/01/06 07:23:26;;;;;;;564.80;188.30;;;;;;;4.31;71.65;99755.42;118405;1150;105058;-70
2021/01/06 07:26:08;;;;;;;596.80;213.10;;;;;;;4.33;71.34;99754.36;118501;1148;104907;-70
2021/01/06 07:28:35;;;;;;;606.05;230.10;;;;;;;4.37;71.34;99754.08;118396;1148;104565;-70
2021/01/06 07:31:29;;;;;;;611.73;238.55;;;;;;;4.35;71.54;99763.94;118459;1148;104633;-70
2021/01/06 07:34:01;;;;;;;622.93;250.13;;;;;;;4.35;71.39;99758.66;118465;1148;104775;-70
2021/01/06 07:36:32;;;;;;;568.93;185.90;;;;;;;4.36;71.28;99760.34;118417;1149;104558;-70
2021/01/06 07:39:00;;;;;;;635.50;258.93;;;;;;;4.31;70.86;99763.34;118562;1149;104566;-71
2021/01/06 07:41:28;;;;;;;623.33;251.27;;;;;;;4.29;71.39;99765.27;118619;1151;104544;-70
2021/01/06 07:44:06;;;;;;;689.73;303.90;;;;;;;4.31;71.24;99764.20;118583;1150;104608;-70
2021/01/06 07:46:46;;;;;;;605.80;233.23;;;;;;;4.35;70.89;99761.30;118520;1150;104544;-70
2021/01/06 07:49:14;;;;;;;640.50;251.02;;;;;;;4.33;71.25;99769.38;118368;1150;104511;-69
2021/01/06 07:52:13;;;;;;;635.10;260.40;;;;;;;4.38;71.23;99771.63;118407;1149;104579;-69
2021/01/06 07:55:02;;;;;;;632.73;263.47;;;;;;;4.45;70.99;99770.17;118353;1150;104690;-69
2021/01/06 07:57:43;;;;;;;635.57;271.80;;;;;;;4.46;71.25;99774.47;118262;1150;104589;-70
2021/01/06 08:00:15;;;;;;;588.53;211.40;;;;;;;4.45;70.89;99776.28;118398;1150;104540;-70
2021/01/06 08:02:56;;;;;;;647.37;275.63;;;;;;;4.48;71.57;99775.18;118445;1150;104581;-70
2021/01/06 08:05:27;;;;;;;701.85;291.93;;;;;;;4.48;71.10;99777.83;118427;1148;104461;-71
2021/01/06 08:08:11;;;;;;;634.05;269.52;;;;;;;4.48;71.19;99783.97;118491;1150;104465;-71
2021/01/06 08:10:39;;;;;;;597.30;229.63;;;;;;;4.52;71.51;99785.39;118471;1151;104469;-70
2021/01/06 08:13:26;;;;;;;593.27;216.33;;;;;;;4.53;71.24;99778.30;118393;1150;104548;-70
2021/01/06 08:15:57;;;;;;;620.08;259.12;;;;;;;4.53;71.13;99783.58;118386;1150;104646;-69
2021/01/06 08:18:31;;;;;;;622.00;261.30;;;;;;;4.55;71.41;99781.64;118429;1150;104633;-71
2021/01/06 08:21:06;;;;;;;617.37;257.30;;;;;;;4.56;71.11;99783.34;118762;1148;104524;-72
2021/01/06 08:23:46;;;;;;;569.27;195.93;;;;;;;4.59;70.66;99783.07;118583;1148;104645;-70
2021/01/06 08:26:17;;;;;;;608.97;244.10;;;;;;;4.66;71.25;99786.06;118569;1148;104508;-71
2021/01/06 08:28:43;;;;;;;616.93;253.83;;;;;;;4.70;70.90;99774.27;118630;1132;104641;-72
2021/01/06 08:31:13;;;;;;;620.60;269.98;;;;;;;4.75;70.92;99781.80;118428;1150;104485;-70
2021/01/06 08:33:58;;;;;;;610.10;250.80;;;;;;;4.78;71.06;99776.27;118588;1149;104646;-72
2021/01/06 08:36:38;;;;;;;557.85;188.20;;;;;;;4.84;70.68;99775.75;118364;1150;104565;-70
2021/01/06 08:39:08;;;;;;;605.80;238.83;;;;;;;4.79;70.41;99777.94;118426;1150;104492;-72
2021/01/06 08:41:34;;;;;;;605.08;240.00;;;;;;;4.83;71.00;99785.50;118355;1150;104754;-72
2021/01/06 08:44:01;;;;;;;607.17;244.97;;;;;;;4.90;71.09;99777.88;118485;1151;104601;-70
2021/01/06 08:46:32;;;;;;;607.90;244.63;;;;;;;4.98;71.36;99778.06;118421;1150;104575;-69
2021/01/06 08:49:31;;;;;;;549.70;172.03;;;;;;;4.98;70.57;99778.06;118406;1150;104590;-72
2021/01/06 08:52:14;;;;;;;605.55;242.65;;;;;;;5.06;70.72;99778.28;118412;1150;104543;-71
2021/01/06 08:54:40;;;;;;;606.15;243.93;;;;;;;5.08;70.90;99783.41;118355;1150;104599;-72
2021/01/06 08:57:28;;;;;;;609.00;249.35;;;;;;;5.08;70.73;99775.48;118473;1150;104525;-71
2021/01/06 08:59:54;;;;;;;611.17;249.90;;;;;;;5.13;70.19;99775.94;118360;1151;104656;-70
2021/01/06 09:02:31;;;;;;;549.20;172.65;;;;;;;5.07;70.63;99771.18;118272;1151;104570;-70
2021/01/06 09:04:57;;;;;;;608.87;246.22;;;;;;;5.03;70.44;99772.41;118299;1150;104489;-70
2021/01/06 09:07:25;;;;;;;610.47;253.77;;;;;;;5.01;71.02;99769.89;118233;1151;105007;-71
2021/01/06 09:10:06;;;;;;;609.97;253.20;;;;;;;4.97;70.37;99776.41;118501;1149;104597;-71
2021/01/06 09:12:55;;;;;;;622.63;265.23;;;;;;;4.95;70.71;99775.70;118533;1150;104607;-72
2021/01/06 09:15:39;;;;;;;565.02;193.95;;;;;;;5.01;70.93;99763.77;118549;1150;104639;-72
2021/01/06 09:18:13;;;;;;;607.98;249.35;;;;;;;5.07;71.00;99766.72;118539;1150;104588;-72
2021/01/06 09:21:12;;;;;;;610.17;257.13;;;;;;;5.08;70.88;99762.27;118619;1151;105092;-73
2021/01/06 09:23:40;;;;;;;611.30;254.73;;;;;;;5.09;70.86;99764.78;118562;1150;104749;-72
2021/01/06 09:26:06;;;;;;;614.03;259.83;;;;;;;5.14;70.41;99766.19;118598;1150;104479;-71
2021/01/06 09:28:38;;;;;;;556.83;181.77;;;;;;;5.12;70.63;99766.35;118493;1150;104678;-72
2021/01/06 09:31:06;;;;;;;607.90;249.50;;;;;;;5.15;70.72;99773.17;118628;1150;104515;-70
2021/01/06 09:33:37;;;;;;;609.67;254.97;;;;;;;5.13;70.58;99767.18;118573;1150;104463;-72
2021/01/06 09:36:04;;;;;;;613.65;258.00;;;;;;;5.07;70.50;99764.08;118593;1150;104467;-74
2021/01/06 09:38:50;;;;;;;618.55;260.55;;;;;;;5.05;70.52;99768.66;118520;1151;104569;-74
2021/01/06 09:41:23;;;;;;;562.67;192.98;;;;;;;5.05;70.63;99766.02;118529;1151;104580;-69
2021/01/06 09:44:08;;;;;;;615.65;254.82;;;;;;;4.99;70.25;99776.28;118414;1151;104649;-69
2021/01/06 09:46:54;;;;;;;616.83;268.42;;;;;;;4.99;70.59;99768.35;118418;1150;104579;-66
2021/01/06 09:49:32;;;;;;;640.12;271.18;;;;;;;4.99;70.21;99782.41;118384;1150;104575;-71
2021/01/06 09:52:02;;;;;;;686.10;288.40;;;;;;;4.97;70.46;99775.58;118330;1150;104463;-70
2021/01/06 09:54:28;;;;;;;724.97;254.20;;;;;;;5.01;70.84;99767.25;118312;1151;104474;-70
2021/01/06 09:56:55;;;;;;;762.13;308.97;;;;;;;5.13;70.62;99762.72;118431;1150;104492;-70
2021/01/06 09:59:35;;;;;;;899.53;380.53;;;;;;;5.19;70.68;99761.36;118388;1150;104639;-69
2021/01/06 10:02:06;;;;;;;1039.07;458.73;;;;;;;5.17;70.12;99760.66;118392;1150;104694;-70
2021/01/06 10:04:38;;;;;;;935.57;389.70;;;;;;;5.21;70.52;99764.72;118386;1151;104484;-70
2021/01/06 10:07:23;;;;;;;709.58;261.43;;;;;;;5.25;70.22;99758.19;118440;1150;104466;-72
2021/01/06 10:10:01;;;;;;;824.32;338.68;;;;;;;5.27;70.58;99757.11;118555;1151;104599;-70
2021/01/06 10:12:41;;;;;;;652.97;280.35;;;;;;;5.27;70.49;99750.95;118538;1150;104617;-71
2021/01/06 10:15:45;;;;;;;803.97;366.80;;;;;;;5.21;69.73;99743.55;118575;1150;104560;-70
2021/01/06 10:18:32;;;;;;;730.07;331.00;;;;;;;5.18;70.26;99741.19;118494;1150;104649;-71
2021/01/06 10:21:14;;;;;;;744.60;298.17;;;;;;;5.22;70.03;99747.89;118295;1150;104490;-71
2021/01/06 10:24:13;;;;;;;722.73;313.85;;;;;;;5.25;69.96;99743.17;118291;1151;104988;-69
2021/01/06 10:27:00;;;;;;;688.57;300.10;;;;;;;5.25;70.38;99734.37;118438;1150;104705;-70
2021/01/06 10:29:29;;;;;;;742.75;337.65;;;;;;;5.30;69.84;99734.84;118426;1150;104487;-77
2021/01/06 10:32:10;;;;;;;753.55;342.10;;;;;;;5.32;69.78;99738.19;118545;1151;104479;-72
2021/01/06 10:34:46;;;;;;;710.13;321.75;;;;;;;5.35;70.04;99737.94;118512;1150;104660;-71
2021/01/06 10:37:27;;;;;;;811.67;331.13;;;;;;;5.36;69.97;99747.53;118526;1150;104578;-70
2021/01/06 10:40:14;;;;;;;910.35;437.27;;;;;;;5.30;70.15;99740.13;118457;1148;104505;-72
2021/01/06 10:42:41;;;;;;;684.63;298.52;;;;;;;5.35;70.15;99743.22;118427;1149;104550;-70
2021/01/06 10:45:14;;;;;;;636.30;273.60;;;;;;;5.40;69.82;99743.64;118379;1151;104477;-70
2021/01/06 10:47:47;;;;;;;746.80;331.10;;;;;;;5.30;69.43;99740.95;118355;1150;104622;-70
2021/01/06 10:50:29;;;;;;;954.80;402.03;;;;;;;5.20;69.62;99744.54;118444;1150;104503;-71
2021/01/06 10:53:07;;;;;;;860.43;378.65;;;;;;;5.19;69.72;99748.97;118424;1150;104571;-70
2021/01/06 10:55:46;;;;;;;759.43;334.27;;;;;;;5.23;69.76;99747.73;118420;1150;104516;-68
2021/01/06 10:58:18;;;;;;;723.97;319.30;;;;;;;5.28;69.91;99744.71;118378;1150;104583;-69
2021/01/06 11:00:52;;;;;;;673.77;295.30;;;;;;;5.29;69.54;99746.38;118401;1149;104628;-69
2021/01/06 11:03:21;;;;;;;782.83;350.22;;;;;;;5.22;69.15;99747.89;118420;1151;104572;-68
2021/01/06 11:05:52;;;;;;;789.70;309.05;;;;;;;5.12;69.38;99745.19;118375;1150;104650;-70
2021/01/06 11:08:51;;;;;;;694.50;302.87;;;;;;;5.03;69.39;99744.16;118455;1151;104483;-69
2021/01/06 11:11:41;;;;;;;625.60;265.30;;;;;;;5.04;69.51;99734.41;118458;1151;104492;-72
2021/01/06 11:15:01;;;;;;;701.80;314.60;;;;;;;5.02;69.42;99737.20;118379;1150;104464;-69
2021/01/06 11:18:01;;;;;;;691.87;311.37;;;;;;;4.97;69.15;99744.68;118091;1153;104806;-71
2021/01/06 11:20:34;;;;;;;659.63;260.90;;;;;;;4.91;69.13;99735.45;118469;1150;104656;-70
2021/01/06 11:23:26;;;;;;;641.50;275.40;;;;;;;4.95;69.44;99738.69;118525;1150;104601;-71
2021/01/06 11:25:55;;;;;;;627.83;270.30;;;;;;;4.97;68.94;99739.39;118538;1151;104555;-70
2021/01/06 11:28:30;;;;;;;630.90;271.80;;;;;;;4.94;68.99;99731.70;118339;1150;104599;-70
2021/01/06 11:31:18;;;;;;;625.92;269.70;;;;;;;4.88;68.79;99740.16;118406;1151;104689;-72
2021/01/06 11:33:46;;;;;;;570.48;203.42;;;;;;;4.84;69.25;99744.03;118412;1150;104508;-69
2021/01/06 11:36:34;;;;;;;612.90;249.00;;;;;;;4.86;68.82;99742.09;118352;1151;104473;-69
2021/01/06 11:39:00;;;;;;;647.80;280.57;;;;;;;4.86;69.32;99748.22;118313;1151;104490;-70
2021/01/06 11:41:26;;;;;;;612.43;257.87;;;;;;;4.91;69.22;99739.91;118480;1150;104742;-69
2021/01/06 11:44:31;;;;;;;616.88;261.35;;;;;;;4.95;68.95;99741.33;118497;1150;104460;-70
2021/01/06 11:47:25;;;;;;;656.30;291.88;;;;;;;5.03;69.17;99738.86;118287;1150;104662;-70
2021/01/06 11:50:26;;;;;;;592.13;213.80;;;;;;;5.11;68.51;99731.11;118530;1150;104528;-70
2021/01/06 11:53:07;;;;;;;643.95;279.60;;;;;;;5.18;68.68;99720.86;118401;1151;104628;-70
2021/01/06 11:55:58;;;;;;;617.93;260.30;;;;;;;5.28;69.00;99715.61;118399;1151;104627;-73